sensor_id;sensor_type;location;lat;lon;timestamp;pressure;altitude;pressure_sealevel;temperature;humidity
39435;BME280;66825;51.880;-0.518;2023-04-27T00:01:47;100904.72;;;16.81;34.48
39435;BME280;66825;51.880;-0.518;2023-04-27T00:04:13;100917.69;;;16.89;34.38
39435;BME280;66825;51.880;-0.518;2023-04-27T00:06:39;100903.88;;;16.80;34.62
39435;BME280;66825;51.880;-0.518;2023-04-27T00:09:04;100907.63;;;16.90;34.43
39435;BME280;66825;51.880;-0.518;2023-04-27T00:11:30;100895.19;;;16.78;34.64
39435;BME280;66825;51.880;-0.518;2023-04-27T00:13:55;100913.38;;;16.88;34.24
39435;BME280;66825;51.880;-0.518;2023-04-27T00:16:21;100848.84;;;16.54;34.67
39435;BME280;66825;51.880;-0.518;2023-04-27T00:18:46;100907.09;;;16.88;34.71
39435;BME280;66825;51.880;-0.518;2023-04-27T00:21:12;100896.50;;;16.86;34.63
39435;BME280;66825;51.880;-0.518;2023-04-27T00:23:37;100901.94;;;16.86;34.81
39435;BME280;66825;51.880;-0.518;2023-04-27T00:26:03;100898.41;;;16.86;34.81
39435;BME280;66825;51.880;-0.518;2023-04-27T00:28:28;100901.94;;;16.86;34.38
39435;BME280;66825;51.880;-0.518;2023-04-27T00:30:54;100889.44;;;16.85;34.56
39435;BME280;66825;51.880;-0.518;2023-04-27T00:33:20;100883.19;;;16.85;34.61
39435;BME280;66825;51.880;-0.518;2023-04-27T00:35:45;100875.63;;;16.76;34.33
39435;BME280;66825;51.880;-0.518;2023-04-27T00:38:11;100844.75;;;16.57;34.66
39435;BME280;66825;51.880;-0.518;2023-04-27T00:40:37;100875.28;;;16.83;34.66
39435;BME280;66825;51.880;-0.518;2023-04-27T00:43:03;100882.66;;;16.82;34.28
39435;BME280;66825;51.880;-0.518;2023-04-27T00:45:28;100878.59;;;16.80;34.50
39435;BME280;66825;51.880;-0.518;2023-04-27T00:47:54;100877.50;;;16.81;34.74
39435;BME280;66825;51.880;-0.518;2023-04-27T00:50:26;100878.31;;;16.81;34.52
39435;BME280;66825;51.880;-0.518;2023-04-27T00:52:52;100865.00;;;16.80;34.47
39435;BME280;66825;51.880;-0.518;2023-04-27T00:55:17;100862.28;;;16.80;34.77
39435;BME280;66825;51.880;-0.518;2023-04-27T00:57:43;100782.94;;;16.33;34.58
39435;BME280;66825;51.880;-0.518;2023-04-27T01:00:09;100845.13;;;16.79;34.41
39435;BME280;66825;51.880;-0.518;2023-04-27T01:02:35;100844.31;;;16.79;34.76
39435;BME280;66825;51.880;-0.518;2023-04-27T01:05:02;100845.41;;;16.78;34.76
39435;BME280;66825;51.880;-0.518;2023-04-27T01:07:28;100820.72;;;16.69;34.70
39435;BME280;66825;51.880;-0.518;2023-04-27T01:09:53;100823.72;;;16.67;34.64
39435;BME280;66825;51.880;-0.518;2023-04-27T01:12:19;100828.53;;;16.76;34.41
39435;BME280;66825;51.880;-0.518;2023-04-27T01:14:44;100826.66;;;16.76;34.69
39435;BME280;66825;51.880;-0.518;2023-04-27T01:17:10;100822.31;;;16.75;34.54
39435;BME280;66825;51.880;-0.518;2023-04-27T01:19:36;100827.75;;;16.75;34.80
39435;BME280;66825;51.880;-0.518;2023-04-27T01:22:02;100827.75;;;16.75;34.52
39435;BME280;66825;51.880;-0.518;2023-04-27T01:24:27;100820.97;;;16.73;34.65
39435;BME280;66825;51.880;-0.518;2023-04-27T01:26:53;100818.50;;;16.71;34.78
39435;BME280;66825;51.880;-0.518;2023-04-27T01:29:19;100823.69;;;16.73;34.46
39435;BME280;66825;51.880;-0.518;2023-04-27T01:31:45;100831.84;;;16.73;34.83
39435;BME280;66825;51.880;-0.518;2023-04-27T01:34:11;100832.66;;;16.73;34.49
39435;BME280;66825;51.880;-0.518;2023-04-27T01:36:36;100829.13;;;16.73;34.92
39435;BME280;66825;51.880;-0.518;2023-04-27T01:39:02;100839.19;;;16.72;34.52
39435;BME280;66825;51.880;-0.518;2023-04-27T01:41:28;100839.19;;;16.72;34.80
39435;BME280;66825;51.880;-0.518;2023-04-27T01:43:53;100841.09;;;16.72;34.52
39435;BME280;66825;51.880;-0.518;2023-04-27T01:46:19;100843.00;;;16.71;34.61
39435;BME280;66825;51.880;-0.518;2023-04-27T01:48:45;100850.66;;;16.69;34.57
39435;BME280;66825;51.880;-0.518;2023-04-27T01:51:10;100851.47;;;16.70;34.58
39435;BME280;66825;51.880;-0.518;2023-04-27T01:53:36;100834.94;;;16.61;34.71
39435;BME280;66825;51.880;-0.518;2023-04-27T01:56:01;100846.31;;;16.68;34.62
39435;BME280;66825;51.880;-0.518;2023-04-27T01:58:27;100862.63;;;16.68;34.73
39435;BME280;66825;51.880;-0.518;2023-04-27T02:00:53;100854.47;;;16.68;34.58
39435;BME280;66825;51.880;-0.518;2023-04-27T02:03:18;100859.38;;;16.66;34.93
39435;BME280;66825;51.880;-0.518;2023-04-27T02:05:44;100850.44;;;16.60;34.52
39435;BME280;66825;51.880;-0.518;2023-04-27T02:08:09;100833.38;;;16.49;34.94
39435;BME280;66825;51.880;-0.518;2023-04-27T02:10:35;100819.88;;;16.39;34.87
39435;BME280;66825;51.880;-0.518;2023-04-27T02:13:01;100859.38;;;16.66;34.54
39435;BME280;66825;51.880;-0.518;2023-04-27T02:15:27;100857.47;;;16.66;34.73
39435;BME280;66825;51.880;-0.518;2023-04-27T02:17:52;100855.84;;;16.65;34.55
39435;BME280;66825;51.880;-0.518;2023-04-27T02:20:18;100854.22;;;16.64;34.88
39435;BME280;66825;51.880;-0.518;2023-04-27T02:22:43;100850.16;;;16.62;34.66
39435;BME280;66825;51.880;-0.518;2023-04-27T02:25:10;100861.56;;;16.64;34.84
39435;BME280;66825;51.880;-0.518;2023-04-27T02:27:45;100849.06;;;16.63;34.79
39435;BME280;66825;51.880;-0.518;2023-04-27T02:30:11;100854.50;;;16.63;34.82
39435;BME280;66825;51.880;-0.518;2023-04-27T02:32:36;100838.56;;;16.51;34.87
39435;BME280;66825;51.880;-0.518;2023-04-27T02:35:02;100856.69;;;16.61;34.90
39435;BME280;66825;51.880;-0.518;2023-04-27T02:37:29;100858.31;;;16.62;34.58
39435;BME280;66825;51.880;-0.518;2023-04-27T02:39:54;100854.78;;;16.61;34.76
39435;BME280;66825;51.880;-0.518;2023-04-27T02:42:20;100853.16;;;16.60;34.86
39435;BME280;66825;51.880;-0.518;2023-04-27T02:44:46;100853.97;;;16.61;34.61
39435;BME280;66825;51.880;-0.518;2023-04-27T02:47:12;100855.88;;;16.60;34.61
39435;BME280;66825;51.880;-0.518;2023-04-27T02:49:37;100844.19;;;16.60;34.72
39435;BME280;66825;51.880;-0.518;2023-04-27T02:52:04;100825.75;;;16.51;34.84
39435;BME280;66825;51.880;-0.518;2023-04-27T02:54:30;100840.13;;;16.57;34.79
39435;BME280;66825;51.880;-0.518;2023-04-27T02:56:56;100809.50;;;16.41;34.48
39435;BME280;66825;51.880;-0.518;2023-04-27T02:59:21;100833.91;;;16.51;34.64
39435;BME280;66825;51.880;-0.518;2023-04-27T03:01:47;100841.75;;;16.58;34.92
39435;BME280;66825;51.880;-0.518;2023-04-27T03:04:12;100831.13;;;16.57;34.75
39435;BME280;66825;51.880;-0.518;2023-04-27T03:06:40;100824.94;;;16.51;34.64
39435;BME280;66825;51.880;-0.518;2023-04-27T03:09:06;100813.59;;;16.44;34.84
39435;BME280;66825;51.880;-0.518;2023-04-27T03:11:32;100818.16;;;16.48;34.58
39435;BME280;66825;51.880;-0.518;2023-04-27T03:13:57;100833.06;;;16.56;34.73
39435;BME280;66825;51.880;-0.518;2023-04-27T03:16:23;100824.09;;;16.56;34.86
39435;BME280;66825;51.880;-0.518;2023-04-27T03:18:48;100804.34;;;16.40;34.58
39435;BME280;66825;51.880;-0.518;2023-04-27T03:21:14;100841.50;;;16.55;34.66
39435;BME280;66825;51.880;-0.518;2023-04-27T03:23:41;100839.59;;;16.55;34.76
39435;BME280;66825;51.880;-0.518;2023-04-27T03:26:12;100840.97;;;16.52;34.77
39435;BME280;66825;51.880;-0.518;2023-04-27T03:28:38;100839.06;;;16.53;35.03
39435;BME280;66825;51.880;-0.518;2023-04-27T03:31:08;100830.09;;;16.52;34.64
39435;BME280;66825;51.880;-0.518;2023-04-27T03:33:34;100827.38;;;16.52;34.92
39435;BME280;66825;51.880;-0.518;2023-04-27T03:36:01;100813.78;;;16.52;34.92
39435;BME280;66825;51.880;-0.518;2023-04-27T03:38:27;100824.66;;;16.52;34.98
39435;BME280;66825;51.880;-0.518;2023-04-27T03:40:53;100822.22;;;16.51;34.82
39435;BME280;66825;51.880;-0.518;2023-04-27T03:43:19;100810.56;;;16.45;34.73
39435;BME280;66825;51.880;-0.518;2023-04-27T03:45:45;100815.97;;;16.50;35.07
39435;BME280;66825;51.880;-0.518;2023-04-27T03:48:11;100805.09;;;16.50;34.89
39435;BME280;66825;51.880;-0.518;2023-04-27T03:50:37;100803.47;;;16.49;34.56
39435;BME280;66825;51.880;-0.518;2023-04-27T03:53:02;100795.88;;;16.46;34.78
39435;BME280;66825;51.880;-0.518;2023-04-27T03:55:28;100803.47;;;16.49;34.76
39435;BME280;66825;51.880;-0.518;2023-04-27T03:57:53;100801.81;;;16.48;34.65
39435;BME280;66825;51.880;-0.518;2023-04-27T04:00:19;100809.97;;;16.48;34.79
39435;BME280;66825;51.880;-0.518;2023-04-27T04:02:44;100792.88;;;16.48;34.70
39435;BME280;66825;51.880;-0.518;2023-04-27T04:05:10;100792.88;;;16.48;34.89
39435;BME280;66825;51.880;-0.518;2023-04-27T04:07:36;100793.97;;;16.47;34.62
39435;BME280;66825;51.880;-0.518;2023-04-27T04:10:03;100783.91;;;16.47;34.87
39435;BME280;66825;51.880;-0.518;2023-04-27T04:12:29;100756.59;;;16.28;34.71
39435;BME280;66825;51.880;-0.518;2023-04-27T04:14:54;100785.00;;;16.46;34.88
39435;BME280;66825;51.880;-0.518;2023-04-27T04:17:20;100789.63;;;16.46;34.80
39435;BME280;66825;51.880;-0.518;2023-04-27T04:19:45;100783.38;;;16.45;34.73
39435;BME280;66825;51.880;-0.518;2023-04-27T04:22:11;100785.25;;;16.45;34.61
39435;BME280;66825;51.880;-0.518;2023-04-27T04:24:36;100794.25;;;16.45;34.68
39435;BME280;66825;51.880;-0.518;2023-04-27T04:27:02;100784.47;;;16.44;34.71
39435;BME280;66825;51.880;-0.518;2023-04-27T04:29:27;100778.22;;;16.44;35.04
39435;BME280;66825;51.880;-0.518;2023-04-27T04:31:54;100749.53;;;16.27;34.97
39435;BME280;66825;51.880;-0.518;2023-04-27T04:34:20;100769.25;;;16.43;34.70
39435;BME280;66825;51.880;-0.518;2023-04-27T04:36:47;100773.06;;;16.42;35.25
39435;BME280;66825;51.880;-0.518;2023-04-27T04:39:16;100774.69;;;16.43;34.66
39435;BME280;66825;51.880;-0.518;2023-04-27T04:41:44;100770.34;;;16.42;35.12
39435;BME280;66825;51.880;-0.518;2023-04-27T04:44:09;100770.91;;;16.39;34.65
39435;BME280;66825;51.880;-0.518;2023-04-27T04:46:35;100725.97;;;16.12;34.72
39435;BME280;66825;51.880;-0.518;2023-04-27T04:49:01;100764.47;;;16.30;34.84
39435;BME280;66825;51.880;-0.518;2023-04-27T04:51:27;100768.19;;;16.39;34.90
39435;BME280;66825;51.880;-0.518;2023-04-27T04:53:52;100761.44;;;16.31;34.70
39435;BME280;66825;51.880;-0.518;2023-04-27T04:56:18;100745.97;;;16.27;35.04
39435;BME280;66825;51.880;-0.518;2023-04-27T04:58:43;100758.72;;;16.37;34.96
39435;BME280;66825;51.880;-0.518;2023-04-27T05:01:09;100765.47;;;16.39;34.83
39435;BME280;66825;51.880;-0.518;2023-04-27T05:03:34;100763.84;;;16.38;35.27
39435;BME280;66825;51.880;-0.518;2023-04-27T05:06:00;100761.94;;;16.39;34.81
39435;BME280;66825;51.880;-0.518;2023-04-27T05:08:25;100758.41;;;16.38;34.94
39435;BME280;66825;51.880;-0.518;2023-04-27T05:10:51;100755.75;;;16.33;34.66
39435;BME280;66825;51.880;-0.518;2023-04-27T05:13:17;100755.75;;;16.33;34.81
39435;BME280;66825;51.880;-0.518;2023-04-27T05:15:43;100758.72;;;16.37;35.08
39435;BME280;66825;51.880;-0.518;2023-04-27T05:18:08;100738.47;;;16.18;34.88
39435;BME280;66825;51.880;-0.518;2023-04-27T05:20:34;100759.81;;;16.35;34.60
39435;BME280;66825;51.880;-0.518;2023-04-27T05:23:00;100758.97;;;16.35;35.07
39435;BME280;66825;51.880;-0.518;2023-04-27T05:25:29;100764.41;;;16.35;34.90
39435;BME280;66825;51.880;-0.518;2023-04-27T05:27:54;100766.31;;;16.34;35.18
39435;BME280;66825;51.880;-0.518;2023-04-27T05:30:19;100769.84;;;16.35;35.08
39435;BME280;66825;51.880;-0.518;2023-04-27T05:32:45;100752.25;;;16.27;34.65
39435;BME280;66825;51.880;-0.518;2023-04-27T05:35:10;100767.41;;;16.33;35.18
39435;BME280;66825;51.880;-0.518;2023-04-27T05:37:36;100768.22;;;16.34;34.90
39435;BME280;66825;51.880;-0.518;2023-04-27T05:40:01;100755.81;;;16.23;35.13
39435;BME280;66825;51.880;-0.518;2023-04-27T05:42:28;100769.91;;;16.30;34.91
39435;BME280;66825;51.880;-0.518;2023-04-27T05:44:53;100769.59;;;16.31;34.91
39435;BME280;66825;51.880;-0.518;2023-04-27T05:47:19;100748.00;;;16.11;34.96
39435;BME280;66825;51.880;-0.518;2023-04-27T05:49:49;100754.78;;;16.13;34.91
39435;BME280;66825;51.880;-0.518;2023-04-27T05:52:14;100785.13;;;16.31;35.08
39435;BME280;66825;51.880;-0.518;2023-04-27T05:54:45;100778.84;;;16.30;34.88
39435;BME280;66825;51.880;-0.518;2023-04-27T05:57:10;100737.44;;;16.09;35.02
39435;BME280;66825;51.880;-0.518;2023-04-27T05:59:36;100764.50;;;16.25;34.82
39435;BME280;66825;51.880;-0.518;2023-04-27T06:02:01;100769.09;;;16.29;34.83
39435;BME280;66825;51.880;-0.518;2023-04-27T06:04:27;100774.28;;;16.26;34.96
39435;BME280;66825;51.880;-0.518;2023-04-27T06:06:53;100771.81;;;16.29;35.09
39435;BME280;66825;51.880;-0.518;2023-04-27T06:09:19;100768.03;;;16.25;34.83
39435;BME280;66825;51.880;-0.518;2023-04-27T06:11:45;100692.19;;;15.79;34.79
39435;BME280;66825;51.880;-0.518;2023-04-27T06:14:12;100769.94;;;16.25;34.76
39435;BME280;66825;51.880;-0.518;2023-04-27T06:16:37;100767.47;;;16.28;34.83
39435;BME280;66825;51.880;-0.518;2023-04-27T06:19:05;100767.47;;;16.28;34.95
39435;BME280;66825;51.880;-0.518;2023-04-27T06:21:34;100763.69;;;16.24;35.06
39435;BME280;66825;51.880;-0.518;2023-04-27T06:24:00;100761.19;;;16.28;34.85
39435;BME280;66825;51.880;-0.518;2023-04-27T06:26:26;100700.63;;;15.87;34.76
39435;BME280;66825;51.880;-0.518;2023-04-27T06:28:51;100761.19;;;16.28;34.80
39435;BME280;66825;51.880;-0.518;2023-04-27T06:31:17;100725.22;;;16.07;34.82
39435;BME280;66825;51.880;-0.518;2023-04-27T06:33:42;100759.81;;;16.30;34.71
39435;BME280;66825;51.880;-0.518;2023-04-27T06:36:08;100765.00;;;16.32;35.06
39435;BME280;66825;51.880;-0.518;2023-04-27T06:38:33;100760.88;;;16.34;34.73
39435;BME280;66825;51.880;-0.518;2023-04-27T06:40:59;100754.34;;;16.35;35.15
39435;BME280;66825;51.880;-0.518;2023-04-27T06:43:24;100752.97;;;16.38;34.95
39435;BME280;66825;51.880;-0.518;2023-04-27T06:45:50;100742.88;;;16.44;35.21
39435;BME280;66825;51.880;-0.518;2023-04-27T06:48:16;100746.63;;;16.48;34.90
39435;BME280;66825;51.880;-0.518;2023-04-27T06:50:42;100738.72;;;16.51;34.88
39435;BME280;66825;51.880;-0.518;2023-04-27T06:53:08;100738.16;;;16.55;34.78
39435;BME280;66825;51.880;-0.518;2023-04-27T06:55:33;100735.69;;;16.53;35.07
39435;BME280;66825;51.880;-0.518;2023-04-27T06:57:59;100731.66;;;16.50;35.14
39435;BME280;66825;51.880;-0.518;2023-04-27T07:00:25;100718.97;;;16.41;34.78
39435;BME280;66825;51.880;-0.518;2023-04-27T07:02:51;100762.50;;;16.70;34.62
39435;BME280;66825;51.880;-0.518;2023-04-27T07:05:17;100756.47;;;16.73;34.93
39435;BME280;66825;51.880;-0.518;2023-04-27T07:07:43;100658.03;;;16.12;35.10
39435;BME280;66825;51.880;-0.518;2023-04-27T07:10:09;100756.94;;;16.80;34.59
39435;BME280;66825;51.880;-0.518;2023-04-27T07:12:36;100751.75;;;16.84;34.82
39435;BME280;66825;51.880;-0.518;2023-04-27T07:15:01;100754.69;;;16.88;34.69
39435;BME280;66825;51.880;-0.518;2023-04-27T07:17:28;100740.31;;;16.82;34.58
39435;BME280;66825;51.880;-0.518;2023-04-27T07:19:54;100752.47;;;16.95;34.60
39435;BME280;66825;51.880;-0.518;2023-04-27T07:22:20;100751.91;;;16.98;34.65
39435;BME280;66825;51.880;-0.518;2023-04-27T07:24:46;100754.03;;;17.01;34.91
39435;BME280;66825;51.880;-0.518;2023-04-27T07:27:11;100751.06;;;17.03;34.54
39435;BME280;66825;51.880;-0.518;2023-04-27T07:29:38;100756.72;;;17.06;34.58
39435;BME280;66825;51.880;-0.518;2023-04-27T07:32:05;100758.31;;;17.07;34.73
39435;BME280;66825;51.880;-0.518;2023-04-27T07:34:30;100755.28;;;17.14;34.52
39435;BME280;66825;51.880;-0.518;2023-04-27T07:36:56;100741.97;;;17.12;34.32
39435;BME280;66825;51.880;-0.518;2023-04-27T07:39:21;100753.31;;;17.20;34.81
39435;BME280;66825;51.880;-0.518;2023-04-27T07:41:48;100746.47;;;17.22;35.41
39435;BME280;66825;51.880;-0.518;2023-04-27T07:44:16;100736.16;;;17.19;35.33
39435;BME280;66825;51.880;-0.518;2023-04-27T07:46:42;100673.59;;;16.90;35.09
39435;BME280;66825;51.880;-0.518;2023-04-27T07:49:08;100729.78;;;17.29;35.03
39435;BME280;66825;51.880;-0.518;2023-04-27T07:51:33;100746.00;;;17.39;34.96
39435;BME280;66825;51.880;-0.518;2023-04-27T07:53:59;100746.13;;;17.48;34.81
39435;BME280;66825;51.880;-0.518;2023-04-27T07:56:26;100743.63;;;17.52;34.96
39435;BME280;66825;51.880;-0.518;2023-04-27T07:58:52;100741.97;;;17.56;34.73
39435;BME280;66825;51.880;-0.518;2023-04-27T08:01:17;100736.22;;;17.57;34.59
39435;BME280;66825;51.880;-0.518;2023-04-27T08:03:43;100730.78;;;17.57;34.88
39435;BME280;66825;51.880;-0.518;2023-04-27T08:06:08;100727.16;;;17.62;34.76
39435;BME280;66825;51.880;-0.518;2023-04-27T08:08:34;100748.66;;;17.63;34.97
39435;BME280;66825;51.880;-0.518;2023-04-27T08:10:59;100727.16;;;17.62;34.60
39435;BME280;66825;51.880;-0.518;2023-04-27T08:13:25;100702.84;;;17.46;34.52
39435;BME280;66825;51.880;-0.518;2023-04-27T08:15:51;100730.66;;;17.68;34.66
39435;BME280;66825;51.880;-0.518;2023-04-27T08:18:23;100733.06;;;17.69;34.48
39435;BME280;66825;51.880;-0.518;2023-04-27T08:20:48;100736.91;;;17.68;34.50
39435;BME280;66825;51.880;-0.518;2023-04-27T08:23:14;100732.50;;;17.72;34.79
39435;BME280;66825;51.880;-0.518;2023-04-27T08:25:39;100707.09;;;17.58;34.71
39435;BME280;66825;51.880;-0.518;2023-04-27T08:28:05;100729.78;;;17.72;34.73
39435;BME280;66825;51.880;-0.518;2023-04-27T08:30:31;100656.75;;;17.31;34.72
39435;BME280;66825;51.880;-0.518;2023-04-27T08:32:56;100727.03;;;17.72;35.00
39435;BME280;66825;51.880;-0.518;2023-04-27T08:35:22;100728.16;;;17.71;35.18
39435;BME280;66825;51.880;-0.518;2023-04-27T08:37:47;100735.94;;;17.78;35.31
39435;BME280;66825;51.880;-0.518;2023-04-27T08:40:13;100725.88;;;17.78;35.63
39435;BME280;66825;51.880;-0.518;2023-04-27T08:42:41;100719.31;;;17.80;35.49
39435;BME280;66825;51.880;-0.518;2023-04-27T08:45:17;100709.78;;;17.77;35.49
39435;BME280;66825;51.880;-0.518;2023-04-27T08:47:43;100698.16;;;17.71;35.25
39435;BME280;66825;51.880;-0.518;2023-04-27T08:50:10;100713.69;;;17.90;35.33
39435;BME280;66825;51.880;-0.518;2023-04-27T08:52:36;100719.66;;;17.92;34.98
39435;BME280;66825;51.880;-0.518;2023-04-27T08:55:01;100703.31;;;17.92;34.94
39435;BME280;66825;51.880;-0.518;2023-04-27T08:57:28;100705.72;;;17.93;35.19
39435;BME280;66825;51.880;-0.518;2023-04-27T08:59:57;100695.38;;;17.96;35.14
39435;BME280;66825;51.880;-0.518;2023-04-27T09:02:24;100683.91;;;17.99;34.93
39435;BME280;66825;51.880;-0.518;2023-04-27T09:04:54;100678.94;;;18.01;34.79
39435;BME280;66825;51.880;-0.518;2023-04-27T09:07:20;100677.53;;;18.03;34.90
39435;BME280;66825;51.880;-0.518;2023-04-27T09:09:46;100679.16;;;18.04;34.51
39435;BME280;66825;51.880;-0.518;2023-04-27T09:12:18;100685.69;;;18.03;34.81
39435;BME280;66825;51.880;-0.518;2023-04-27T09:14:58;100685.66;;;18.08;34.66
39435;BME280;66825;51.880;-0.518;2023-04-27T09:17:28;100698.66;;;18.12;34.65
39435;BME280;66825;51.880;-0.518;2023-04-27T09:20:08;100691.00;;;18.14;34.75
39435;BME280;66825;51.880;-0.518;2023-04-27T09:22:51;100679.78;;;18.15;34.71
39435;BME280;66825;51.880;-0.518;2023-04-27T09:25:31;100682.25;;;18.17;34.59
39435;BME280;66825;51.880;-0.518;2023-04-27T09:27:59;100684.66;;;18.18;34.32
39435;BME280;66825;51.880;-0.518;2023-04-27T09:30:26;100677.78;;;18.21;34.41
39435;BME280;66825;51.880;-0.518;2023-04-27T09:32:59;100682.66;;;18.24;34.55
39435;BME280;66825;51.880;-0.518;2023-04-27T09:35:32;100674.97;;;18.26;34.48
39435;BME280;66825;51.880;-0.518;2023-04-27T09:37:59;100671.13;;;18.27;34.37
39435;BME280;66825;51.880;-0.518;2023-04-27T09:40:26;100668.94;;;18.29;34.47
39435;BME280;66825;51.880;-0.518;2023-04-27T09:42:58;100666.19;;;18.29;34.14
39435;BME280;66825;51.880;-0.518;2023-04-27T09:45:25;100654.34;;;18.20;34.50
39435;BME280;66825;51.880;-0.518;2023-04-27T09:47:51;100665.00;;;18.35;34.78
39435;BME280;66825;51.880;-0.518;2023-04-27T09:50:17;100670.34;;;18.40;34.47
39435;BME280;66825;51.880;-0.518;2023-04-27T09:52:44;100661.91;;;18.42;34.02
39435;BME280;66825;51.880;-0.518;2023-04-27T09:55:14;100637.91;;;18.25;34.35
39435;BME280;66825;51.880;-0.518;2023-04-27T09:58:13;100675.75;;;18.46;33.81
39435;BME280;66825;51.880;-0.518;2023-04-27T10:00:57;100655.50;;;18.47;34.21
39435;BME280;66825;51.880;-0.518;2023-04-27T10:03:32;100654.41;;;18.48;34.17
39435;BME280;66825;51.880;-0.518;2023-04-27T10:08:49;100654.34;;;18.53;34.00
39435;BME280;66825;51.880;-0.518;2023-04-27T10:11:16;100643.09;;;18.54;33.74
39435;BME280;66825;51.880;-0.518;2023-04-27T10:13:50;100643.91;;;18.55;33.67
39435;BME280;66825;51.880;-0.518;2023-04-27T10:16:17;100638.16;;;18.56;33.61
39435;BME280;66825;51.880;-0.518;2023-04-27T10:18:50;100644.09;;;18.58;33.52
39435;BME280;66825;51.880;-0.518;2023-04-27T10:21:17;100631.28;;;18.59;33.57
39435;BME280;66825;51.880;-0.518;2023-04-27T10:23:49;100640.00;;;18.61;33.74
39435;BME280;66825;51.880;-0.518;2023-04-27T10:26:23;100632.91;;;18.60;33.55
39435;BME280;66825;51.880;-0.518;2023-04-27T10:29:04;100645.34;;;18.66;33.43
39435;BME280;66825;51.880;-0.518;2023-04-27T10:31:31;100634.44;;;18.66;33.38
39435;BME280;66825;51.880;-0.518;2023-04-27T10:34:08;100636.03;;;18.67;33.01
39435;BME280;66825;51.880;-0.518;2023-04-27T10:36:35;100634.13;;;18.68;33.39
39435;BME280;66825;51.880;-0.518;2023-04-27T10:39:02;100636.84;;;18.68;33.38
39435;BME280;66825;51.880;-0.518;2023-04-27T10:41:35;100548.69;;;18.12;32.98
39435;BME280;66825;51.880;-0.518;2023-04-27T10:44:15;100640.88;;;18.70;33.09
39435;BME280;66825;51.880;-0.518;2023-04-27T10:46:52;100629.69;;;18.72;33.05
39435;BME280;66825;51.880;-0.518;2023-04-27T10:49:18;100628.25;;;18.75;33.39
39435;BME280;66825;51.880;-0.518;2023-04-27T10:51:43;100617.63;;;18.73;33.34
39435;BME280;66825;51.880;-0.518;2023-04-27T10:54:10;100610.78;;;18.76;33.37
39435;BME280;66825;51.880;-0.518;2023-04-27T10:56:36;100602.28;;;18.77;33.27
39435;BME280;66825;51.880;-0.518;2023-04-27T10:59:05;100579.41;;;18.73;33.10
39435;BME280;66825;51.880;-0.518;2023-04-27T11:01:31;100584.47;;;18.80;33.24
39435;BME280;66825;51.880;-0.518;2023-04-27T11:03:58;100582.47;;;18.71;33.03
39435;BME280;66825;51.880;-0.518;2023-04-27T11:06:24;100525.31;;;18.38;33.19
39435;BME280;66825;51.880;-0.518;2023-04-27T11:08:50;100587.72;;;18.82;33.17
39435;BME280;66825;51.880;-0.518;2023-04-27T11:11:15;100518.91;;;18.43;33.13
39435;BME280;66825;51.880;-0.518;2023-04-27T11:13:43;100567.50;;;18.83;33.28
39435;BME280;66825;51.880;-0.518;2023-04-27T11:16:09;100566.09;;;18.85;33.21
39435;BME280;66825;51.880;-0.518;2023-04-27T11:18:37;100523.84;;;18.69;33.72
39435;BME280;66825;51.880;-0.518;2023-04-27T11:21:10;100547.44;;;18.87;33.08
39435;BME280;66825;51.880;-0.518;2023-04-27T11:23:37;100547.78;;;18.86;33.19
39435;BME280;66825;51.880;-0.518;2023-04-27T11:26:14;100533.72;;;18.79;33.11
39435;BME280;66825;51.880;-0.518;2023-04-27T11:28:44;100538.59;;;18.82;33.42
39435;BME280;66825;51.880;-0.518;2023-04-27T11:31:11;100529.19;;;18.74;33.30
39435;BME280;66825;51.880;-0.518;2023-04-27T11:33:36;100537.56;;;18.78;33.19
39435;BME280;66825;51.880;-0.518;2023-04-27T11:36:15;100526.69;;;18.64;32.39
39435;BME280;66825;51.880;-0.518;2023-04-27T11:38:41;100553.34;;;18.67;32.48
39435;BME280;66825;51.880;-0.518;2023-04-27T11:41:06;100540.13;;;18.60;32.45
39435;BME280;66825;51.880;-0.518;2023-04-27T11:43:33;100528.19;;;18.56;32.05
39435;BME280;66825;51.880;-0.518;2023-04-27T11:46:04;100521.25;;;18.50;32.14
39435;BME280;66825;51.880;-0.518;2023-04-27T11:48:35;100516.38;;;18.47;32.19
39435;BME280;66825;51.880;-0.518;2023-04-27T11:51:02;100531.16;;;18.46;32.46
39435;BME280;66825;51.880;-0.518;2023-04-27T11:53:29;100453.91;;;18.08;32.69
39435;BME280;66825;51.880;-0.518;2023-04-27T11:55:59;100515.06;;;18.44;32.37
39435;BME280;66825;51.880;-0.518;2023-04-27T11:58:27;100514.06;;;18.40;32.02
39435;BME280;66825;51.880;-0.518;2023-04-27T12:00:55;100502.16;;;18.36;32.10
39435;BME280;66825;51.880;-0.518;2023-04-27T12:03:20;100504.19;;;18.30;32.29
39435;BME280;66825;51.880;-0.518;2023-04-27T12:05:50;100492.25;;;18.26;32.20
39435;BME280;66825;51.880;-0.518;2023-04-27T12:08:16;100490.44;;;18.21;32.28
39435;BME280;66825;51.880;-0.518;2023-04-27T12:10:43;100492.16;;;18.17;32.30
39435;BME280;66825;51.880;-0.518;2023-04-27T12:13:10;100489.22;;;18.14;32.32
39435;BME280;66825;51.880;-0.518;2023-04-27T12:15:37;100489.34;;;18.08;32.34
39435;BME280;66825;51.880;-0.518;2023-04-27T12:18:02;100473.56;;;18.05;32.46
39435;BME280;66825;51.880;-0.518;2023-04-27T12:20:28;100480.44;;;18.03;32.52
39435;BME280;66825;51.880;-0.518;2023-04-27T12:22:55;100462.13;;;17.89;32.64
39435;BME280;66825;51.880;-0.518;2023-04-27T12:25:21;100460.16;;;17.95;32.99
39435;BME280;66825;51.880;-0.518;2023-04-27T12:27:46;100454.97;;;17.93;33.09
39435;BME280;66825;51.880;-0.518;2023-04-27T12:30:13;100444.97;;;17.89;32.92
39435;BME280;66825;51.880;-0.518;2023-04-27T12:32:39;100450.31;;;17.80;33.10
39435;BME280;66825;51.880;-0.518;2023-04-27T12:35:05;100460.81;;;17.87;33.21
39435;BME280;66825;51.880;-0.518;2023-04-27T12:37:31;100448.09;;;17.82;33.31
39435;BME280;66825;51.880;-0.518;2023-04-27T12:39:56;100449.72;;;17.83;33.21
39435;BME280;66825;51.880;-0.518;2023-04-27T12:42:22;100443.44;;;17.83;33.43